Time;durP1;ratioP1;P1;durP2;ratioP2;P2;SDS_P1;SDS_P2;PMS_P1;PMS_P2;Temp;Humidity;BMP_temperature;BMP_pressure;BME280_temperature;BME280_humidity;BME280_pressure;Samples;Min_cycle;Max_cycle;Signal;HPM_P1;HPM_P2
2020/12/15 00:00:36;;;;;;;3.67;2.70;;;6.70;99.90;;;;;;5038550;28;20288;-75
2020/12/15 00:03:03;;;;;;;2.53;2.43;;;6.70;99.90;;;;;;5041012;28;20335;-74
2020/12/15 00:05:28;;;;;;;2.40;2.20;;;6.70;99.90;;;;;;5035770;28;21135;-76
2020/12/15 00:07:54;;;;;;;2.60;2.43;;;6.70;99.90;;;;;;5036163;28;20427;-75
2020/12/15 00:10:20;;;;;;;2.63;2.43;;;6.70;99.90;;;;;;5039386;28;20182;-76
2020/12/15 00:12:46;;;;;;;3.13;2.93;;;6.70;99.90;;;;;;5038874;28;20614;-74
2020/12/15 00:15:12;;;;;;;2.77;2.57;;;6.70;99.90;;;;;;5032241;28;20204;-76
2020/12/15 00:17:37;;;;;;;2.73;2.63;;;6.70;99.90;;;;;;5036922;28;20436;-75
2020/12/15 00:20:07;;;;;;;2.70;2.50;;;6.70;99.90;;;;;;5037705;28;20177;-76
2020/12/15 00:22:37;;;;;;;2.60;2.40;;;6.70;99.90;;;;;;5040374;28;20162;-76
2020/12/15 00:25:06;;;;;;;2.60;2.40;;;6.80;99.90;;;;;;5041557;28;20818;-75
2020/12/15 00:27:32;;;;;;;2.57;2.30;;;6.80;99.90;;;;;;5041257;28;20486;-76
2020/12/15 00:29:57;;;;;;;3.20;2.40;;;6.80;99.90;;;;;;5044966;28;20948;-75
2020/12/15 00:32:23;;;;;;;5.63;2.83;;;6.80;99.90;;;;;;5043172;28;20459;-75
2020/12/15 00:34:49;;;;;;;3.00;2.80;;;6.80;99.90;;;;;;5040220;28;20189;-75
2020/12/15 00:37:15;;;;;;;2.70;2.50;;;6.80;99.90;;;;;;5041347;28;20181;-75
2020/12/15 00:39:40;;;;;;;4.50;2.50;;;6.80;99.90;;;;;;5042836;28;20601;-75
2020/12/15 00:42:06;;;;;;;2.73;2.53;;;6.80;99.90;;;;;;5040996;28;20569;-75
2020/12/15 00:44:34;;;;;;;2.57;2.37;;;6.70;99.90;;;;;;5043096;28;20216;-75
2020/12/15 00:46:59;;;;;;;2.93;2.73;;;6.70;99.90;;;;;;5040229;28;20432;-75
2020/12/15 00:49:25;;;;;;;2.33;2.17;;;6.70;99.90;;;;;;5037554;28;20443;-75
2020/12/15 00:51:51;;;;;;;2.80;2.60;;;6.60;99.90;;;;;;5045735;28;20183;-76
2020/12/15 00:54:17;;;;;;;2.43;2.33;;;6.60;99.90;;;;;;5040136;28;20479;-75
2020/12/15 00:56:42;;;;;;;2.80;2.60;;;6.60;99.90;;;;;;5038421;28;20252;-75
2020/12/15 00:59:08;;;;;;;4.20;2.97;;;6.60;99.90;;;;;;5040079;28;20216;-75
2020/12/15 01:01:34;;;;;;;4.33;3.23;;;6.60;99.90;;;;;;5040013;28;20180;-75
2020/12/15 01:04:00;;;;;;;2.73;2.63;;;6.70;99.90;;;;;;5033659;28;20256;-76
2020/12/15 01:06:26;;;;;;;2.57;2.47;;;6.70;99.90;;;;;;5037021;28;20770;-76
2020/12/15 01:08:51;;;;;;;2.57;2.47;;;6.70;99.90;;;;;;5041422;28;20433;-75
2020/12/15 01:11:19;;;;;;;3.47;3.27;;;6.70;99.90;;;;;;5039561;28;20223;-76
2020/12/15 01:13:45;;;;;;;2.97;2.77;;;6.70;99.90;;;;;;5042822;28;20532;-76
2020/12/15 01:16:10;;;;;;;2.57;2.37;;;6.70;99.90;;;;;;5036880;28;20431;-75
2020/12/15 01:18:36;;;;;;;5.73;2.73;;;6.70;99.90;;;;;;5042907;28;20200;-75
2020/12/15 01:21:03;;;;;;;2.97;2.67;;;6.70;99.90;;;;;;5047761;28;20913;-75
2020/12/15 01:23:29;;;;;;;3.03;2.83;;;6.70;99.90;;;;;;5045224;28;20200;-75
2020/12/15 01:25:55;;;;;;;3.13;2.93;;;6.70;99.90;;;;;;5046538;28;20933;-75
2020/12/15 01:28:21;;;;;;;2.20;2.10;;;6.60;99.90;;;;;;5040860;28;20432;-75
2020/12/15 01:30:47;;;;;;;5.10;2.60;;;6.60;99.90;;;;;;5042991;28;20428;-75
2020/12/15 01:33:12;;;;;;;2.50;2.40;;;6.60;99.90;;;;;;5048762;28;20173;-75
2020/12/15 01:35:38;;;;;;;3.10;2.90;;;6.60;99.90;;;;;;5045977;28;20618;-76
2020/12/15 01:38:04;;;;;;;3.87;2.97;;;6.60;99.90;;;;;;5037433;28;20177;-76
2020/12/15 01:40:30;;;;;;;2.30;2.20;;;6.60;99.90;;;;;;5048160;28;20451;-75
2020/12/15 01:42:56;;;;;;;2.93;2.73;;;6.60;99.90;;;;;;5047366;28;20209;-76
2020/12/15 01:45:22;;;;;;;3.47;2.70;;;6.70;99.90;;;;;;5043210;28;20196;-76
2020/12/15 01:47:48;;;;;;;2.40;2.30;;;6.60;99.90;;;;;;5041728;28;20180;-75
2020/12/15 01:50:14;;;;;;;3.17;2.97;;;6.60;99.90;;;;;;5045311;28;20462;-75
2020/12/15 01:52:40;;;;;;;3.80;2.80;;;6.60;99.90;;;;;;5040110;28;20443;-76
2020/12/15 01:55:07;;;;;;;2.50;2.37;;;6.60;99.90;;;;;;5047171;28;21443;-76
2020/12/15 01:57:33;;;;;;;2.60;2.47;;;6.60;99.90;;;;;;5044511;28;20275;-75
2020/12/15 01:59:58;;;;;;;3.30;2.70;;;6.60;99.90;;;;;;5039768;28;20431;-76
2020/12/15 02:02:24;;;;;;;2.93;2.73;;;6.60;99.90;;;;;;5046236;28;20534;-75
2020/12/15 02:04:50;;;;;;;3.90;3.37;;;6.60;99.90;;;;;;5043914;28;20210;-75
2020/12/15 02:07:17;;;;;;;3.20;3.00;;;6.70;99.90;;;;;;5047172;28;20252;-75
2020/12/15 02:09:44;;;;;;;3.00;2.80;;;6.70;99.90;;;;;;5048894;28;20308;-75
2020/12/15 02:12:11;;;;;;;3.50;3.27;;;6.70;99.90;;;;;;5043613;28;20450;-75
2020/12/15 02:14:38;;;;;;;2.80;2.70;;;6.70;99.90;;;;;;5047501;28;20734;-74
2020/12/15 02:17:03;;;;;;;3.20;3.00;;;6.70;99.90;;;;;;5037459;28;20908;-75
2020/12/15 02:19:29;;;;;;;3.37;2.53;;;6.70;99.90;;;;;;5046127;28;20439;-75
2020/12/15 02:22:01;;;;;;;3.70;3.40;;;6.70;99.90;;;;;;5046546;28;20905;-74
2020/12/15 02:24:27;;;;;;;3.13;2.93;;;6.60;99.90;;;;;;5048907;28;20461;-75
2020/12/15 02:26:54;;;;;;;3.40;3.10;;;6.60;99.90;;;;;;5045863;28;20436;-74
2020/12/15 02:29:20;;;;;;;3.23;2.90;;;6.60;99.90;;;;;;5043077;28;21516;-74
2020/12/15 02:31:46;;;;;;;2.90;2.70;;;6.60;99.90;;;;;;5044954;28;20427;-75
2020/12/15 02:34:12;;;;;;;3.93;2.90;;;6.60;99.90;;;;;;5043141;28;20189;-75
2020/12/15 02:36:38;;;;;;;3.77;3.03;;;6.60;99.90;;;;;;5052533;28;20196;-75
2020/12/15 02:39:07;;;;;;;3.30;3.10;;;6.60;99.90;;;;;;5046253;28;20192;-75
2020/12/15 02:41:33;;;;;;;3.40;3.10;;;6.60;99.90;;;;;;5049501;28;20903;-75
2020/12/15 02:43:59;;;;;;;3.60;3.40;;;6.60;99.90;;;;;;5047459;28;20502;-75
2020/12/15 02:46:24;;;;;;;4.07;3.77;;;6.60;99.90;;;;;;5050149;28;20481;-75
2020/12/15 02:48:51;;;;;;;3.93;3.63;;;6.60;99.90;;;;;;5046840;28;20174;-75
2020/12/15 02:51:17;;;;;;;2.97;2.77;;;6.60;99.90;;;;;;5050348;28;20180;-75
2020/12/15 02:53:42;;;;;;;3.57;3.27;;;6.60;99.90;;;;;;5051421;28;20903;-75
2020/12/15 02:56:08;;;;;;;3.23;3.00;;;6.60;99.90;;;;;;5050042;28;20302;-75
2020/12/15 02:58:35;;;;;;;4.33;2.83;;;6.60;99.90;;;;;;5045316;28;20575;-75
2020/12/15 03:01:02;;;;;;;3.00;2.80;;;6.50;99.90;;;;;;5046948;28;20184;-75
2020/12/15 03:03:28;;;;;;;3.03;2.73;;;6.50;99.90;;;;;;5051031;28;20447;-75
2020/12/15 03:05:54;;;;;;;3.20;3.00;;;6.50;99.90;;;;;;5049911;28;20446;-75
2020/12/15 03:08:20;;;;;;;3.07;2.87;;;6.50;99.90;;;;;;5055315;28;21692;-75
2020/12/15 03:10:47;;;;;;;3.00;2.80;;;6.50;99.90;;;;;;5052200;28;20439;-75
2020/12/15 03:13:12;;;;;;;2.87;2.67;;;6.50;99.90;;;;;;5051553;28;20436;-76
2020/12/15 03:15:38;;;;;;;2.60;2.40;;;6.50;99.90;;;;;;5049331;28;20432;-74
2020/12/15 03:18:04;;;;;;;3.13;2.60;;;6.50;99.90;;;;;;5047854;28;20173;-75
2020/12/15 03:20:29;;;;;;;4.73;3.20;;;6.50;99.90;;;;;;5048215;28;20227;-75
2020/12/15 03:22:55;;;;;;;2.60;2.50;;;6.50;99.90;;;;;;5050855;28;20291;-75
2020/12/15 03:25:21;;;;;;;3.50;3.27;;;6.50;99.90;;;;;;5049625;28;20314;-75
2020/12/15 03:27:50;;;;;;;4.20;4.00;;;6.50;99.90;;;;;;5046955;28;20623;-74
2020/12/15 03:30:15;;;;;;;3.10;2.83;;;6.50;99.90;;;;;;5049265;28;20573;-75
2020/12/15 03:32:41;;;;;;;3.40;3.10;;;6.50;99.90;;;;;;5046605;28;20424;-75
2020/12/15 03:35:07;;;;;;;2.97;2.80;;;6.50;99.90;;;;;;5047007;28;20630;-75
2020/12/15 03:37:32;;;;;;;3.23;3.03;;;6.40;99.90;;;;;;5048520;28;20210;-75
2020/12/15 03:39:58;;;;;;;3.33;3.00;;;6.40;99.90;;;;;;5048216;28;20193;-75
2020/12/15 03:42:24;;;;;;;3.13;2.93;;;6.50;99.90;;;;;;5049218;28;20201;-75
2020/12/15 03:44:50;;;;;;;2.90;2.77;;;6.50;99.90;;;;;;5048401;28;20205;-75
2020/12/15 03:47:15;;;;;;;2.80;2.60;;;6.50;99.90;;;;;;5047345;28;20185;-75
2020/12/15 03:49:41;;;;;;;2.70;2.33;;;6.50;99.90;;;;;;5040648;28;20637;-75
2020/12/15 03:52:07;;;;;;;2.73;2.53;;;6.50;99.90;;;;;;5045123;28;20231;-75
2020/12/15 03:54:32;;;;;;;3.17;2.90;;;6.50;99.90;;;;;;5043873;28;20217;-76
2020/12/15 03:56:58;;;;;;;3.10;2.90;;;6.40;99.90;;;;;;5049552;28;20180;-75
2020/12/15 03:59:24;;;;;;;3.47;3.27;;;6.40;99.90;;;;;;5047715;28;20184;-76
2020/12/15 04:01:50;;;;;;;3.63;3.43;;;6.40;99.90;;;;;;5045981;28;20213;-75
2020/12/15 04:04:15;;;;;;;3.40;3.20;;;6.40;99.90;;;;;;5048803;28;20550;-75
2020/12/15 04:06:41;;;;;;;3.50;3.30;;;6.40;99.90;;;;;;5048194;28;20180;-75
2020/12/15 04:09:07;;;;;;;3.27;3.07;;;6.40;99.90;;;;;;5047598;28;20182;-75
2020/12/15 04:11:33;;;;;;;3.33;3.13;;;6.40;99.90;;;;;;5049716;28;20779;-75
2020/12/15 04:13:58;;;;;;;3.13;2.93;;;6.40;99.90;;;;;;5046989;28;20196;-75
2020/12/15 04:16:24;;;;;;;3.53;3.10;;;6.40;99.90;;;;;;5051309;28;20439;-75
2020/12/15 04:18:50;;;;;;;3.03;2.73;;;6.40;99.90;;;;;;5047558;28;20268;-75
2020/12/15 04:21:15;;;;;;;3.47;3.27;;;6.40;99.90;;;;;;5043085;28;20188;-75
2020/12/15 04:23:43;;;;;;;3.23;3.07;;;6.40;99.90;;;;;;5046927;28;20204;-75
2020/12/15 04:26:08;;;;;;;3.50;3.30;;;6.50;99.90;;;;;;5047342;28;20184;-75
2020/12/15 04:28:34;;;;;;;4.13;3.47;;;6.50;99.90;;;;;;5047549;28;20435;-75
2020/12/15 04:31:00;;;;;;;3.40;3.10;;;6.50;99.90;;;;;;5049862;28;20227;-75
2020/12/15 04:33:25;;;;;;;2.60;2.40;;;6.50;99.90;;;;;;5046975;28;20188;-75
2020/12/15 04:35:51;;;;;;;4.87;2.80;;;6.50;99.90;;;;;;5047003;28;20272;-74
2020/12/15 04:38:17;;;;;;;3.70;3.37;;;6.50;99.90;;;;;;5035457;28;20262;-76
2020/12/15 04:40:42;;;;;;;3.40;3.20;;;6.50;99.90;;;;;;5046450;28;20561;-75
2020/12/15 04:43:09;;;;;;;3.60;3.30;;;6.50;99.90;;;;;;5050136;28;20270;-74
2020/12/15 04:45:35;;;;;;;3.50;3.20;;;6.50;99.90;;;;;;5046686;28;20272;-75
2020/12/15 04:48:09;;;;;;;4.70;3.13;;;6.50;99.90;;;;;;5045362;28;20438;-75
2020/12/15 04:50:37;;;;;;;2.90;2.80;;;6.50;99.90;;;;;;5045537;28;20799;-75
2020/12/15 04:53:10;;;;;;;3.37;3.13;;;6.50;99.90;;;;;;5048588;28;20439;-75
2020/12/15 04:55:38;;;;;;;3.07;2.77;;;6.50;99.90;;;;;;5049553;28;20894;-75
2020/12/15 04:58:04;;;;;;;3.67;3.10;;;6.50;99.90;;;;;;5044183;28;20534;-75
2020/12/15 05:00:30;;;;;;;3.50;3.17;;;6.50;99.90;;;;;;5042849;28;20428;-75
2020/12/15 05:02:57;;;;;;;3.40;3.20;;;6.50;99.90;;;;;;5046404;28;20431;-75
2020/12/15 05:05:24;;;;;;;3.53;3.33;;;6.50;99.90;;;;;;5039056;28;20435;-75
2020/12/15 05:07:50;;;;;;;2.60;2.50;;;6.50;99.90;;;;;;5043300;28;20439;-75
2020/12/15 05:10:18;;;;;;;3.50;3.30;;;6.50;99.90;;;;;;5041656;28;20435;-75
2020/12/15 05:12:45;;;;;;;3.33;3.13;;;6.50;99.90;;;;;;5049707;28;20436;-75
2020/12/15 05:15:13;;;;;;;3.53;3.23;;;6.50;99.90;;;;;;5046062;28;20424;-75
2020/12/15 05:17:39;;;;;;;4.10;3.80;;;6.50;99.90;;;;;;5035010;28;20665;-74
2020/12/15 05:20:16;;;;;;;4.07;3.67;;;6.60;99.90;;;;;;5045553;28;20480;-74
2020/12/15 05:22:43;;;;;;;4.03;3.73;;;6.60;99.90;;;;;;5044802;28;20423;-75
2020/12/15 05:25:21;;;;;;;3.80;3.53;;;6.60;99.90;;;;;;5047472;28;20432;-74
2020/12/15 05:27:46;;;;;;;4.17;3.77;;;6.60;99.90;;;;;;5057417;28;20485;-75
2020/12/15 05:30:12;;;;;;;4.00;3.70;;;6.60;99.90;;;;;;5045225;28;20416;-75
2020/12/15 05:32:48;;;;;;;3.93;3.73;;;6.70;99.90;;;;;;5048354;28;20184;-75
2020/12/15 05:35:14;;;;;;;4.47;4.07;;;6.70;99.90;;;;;;5047373;28;20176;-75
2020/12/15 05:37:44;;;;;;;4.87;4.40;;;6.70;99.90;;;;;;5046207;28;20435;-75
2020/12/15 05:40:10;;;;;;;4.37;3.97;;;6.70;99.90;;;;;;5050423;28;20526;-74
2020/12/15 05:42:37;;;;;;;4.00;3.70;;;6.70;99.90;;;;;;5037345;28;20996;-74
2020/12/15 05:45:05;;;;;;;4.77;4.37;;;6.80;99.90;;;;;;5045854;28;20498;-75
2020/12/15 05:47:33;;;;;;;4.60;4.20;;;6.80;99.90;;;;;;5040081;28;20430;-74
2020/12/15 05:49:59;;;;;;;5.10;4.70;;;6.80;99.90;;;;;;5045597;28;20437;-75
2020/12/15 05:52:28;;;;;;;3.97;3.67;;;6.80;99.90;;;;;;5045097;28;20435;-75
2020/12/15 05:55:09;;;;;;;5.17;4.50;;;6.80;99.90;;;;;;5047463;28;20441;-75
2020/12/15 05:57:35;;;;;;;4.50;4.10;;;6.80;99.90;;;;;;5049729;28;20541;-75
2020/12/15 06:00:09;;;;;;;5.20;4.70;;;6.80;99.90;;;;;;5046706;28;20431;-75
2020/12/15 06:02:35;;;;;;;4.60;4.17;;;6.80;99.90;;;;;;5050602;28;20488;-75
2020/12/15 06:05:00;;;;;;;5.20;4.67;;;6.80;99.90;;;;;;5052313;28;20827;-75
2020/12/15 06:07:27;;;;;;;5.20;3.97;;;6.80;99.90;;;;;;5047277;28;20956;-75
2020/12/15 06:09:59;;;;;;;5.03;4.53;;;6.80;99.90;;;;;;5048170;28;20196;-75
2020/12/15 06:12:25;;;;;;;5.40;4.40;;;6.80;99.90;;;;;;5052365;28;20546;-75
2020/12/15 06:14:51;;;;;;;4.20;3.80;;;6.80;99.90;;;;;;5046780;28;20522;-75
2020/12/15 06:17:21;;;;;;;4.43;4.00;;;6.80;99.90;;;;;;5051142;28;20919;-75
2020/12/15 06:19:54;;;;;;;4.40;4.10;;;6.80;99.90;;;;;;5046682;28;20805;-75
2020/12/15 06:22:25;;;;;;;5.23;4.73;;;6.80;99.90;;;;;;5048906;28;20737;-75
2020/12/15 06:24:58;;;;;;;4.83;4.40;;;6.80;99.90;;;;;;5047467;28;20473;-75
2020/12/15 06:27:35;;;;;;;6.07;5.47;;;6.80;99.90;;;;;;5045331;28;23150;-75
2020/12/15 06:30:03;;;;;;;5.00;4.60;;;6.80;99.90;;;;;;5039620;28;20848;-75
2020/12/15 06:32:28;;;;;;;5.20;4.80;;;6.80;99.90;;;;;;5043721;28;20427;-75
2020/12/15 06:34:54;;;;;;;5.17;4.67;;;6.80;99.90;;;;;;5051355;28;20431;-75
2020/12/15 06:37:23;;;;;;;4.90;4.40;;;6.80;99.90;;;;;;5050495;28;20188;-75
2020/12/15 06:40:04;;;;;;;4.90;4.50;;;6.80;99.90;;;;;;5052296;28;20773;-75
2020/12/15 06:42:30;;;;;;;5.10;4.60;;;6.80;99.90;;;;;;5051291;28;20471;-75
2020/12/15 06:45:04;;;;;;;4.67;4.27;;;6.80;99.90;;;;;;5050605;28;20487;-75
2020/12/15 06:47:31;;;;;;;4.07;3.70;;;6.80;99.90;;;;;;5049173;28;20432;-75
2020/12/15 06:50:08;;;;;;;5.17;3.90;;;6.80;99.90;;;;;;5047535;28;20428;-75
2020/12/15 06:52:34;;;;;;;5.10;4.60;;;6.80;99.90;;;;;;5048085;28;20438;-75
2020/12/15 06:55:00;;;;;;;4.80;4.40;;;6.80;99.90;;;;;;5046623;28;20483;-75
2020/12/15 06:57:33;;;;;;;7.43;5.20;;;6.80;99.90;;;;;;5048646;28;20637;-75
2020/12/15 07:00:04;;;;;;;6.03;5.47;;;6.80;99.90;;;;;;5047123;28;20216;-75
2020/12/15 07:02:31;;;;;;;6.20;5.60;;;6.90;99.90;;;;;;5048613;28;20547;-76
2020/12/15 07:05:17;;;;;;;5.40;4.90;;;6.90;99.90;;;;;;5060945;28;20809;-75
2020/12/15 07:07:56;;;;;;;5.60;5.10;;;6.90;99.90;;;;;;5047285;28;20453;-75
2020/12/15 07:10:25;;;;;;;5.50;4.60;;;6.90;99.90;;;;;;5048007;28;20428;-75
2020/12/15 07:12:51;;;;;;;4.87;4.47;;;6.90;99.90;;;;;;5049648;28;20446;-75
2020/12/15 07:15:18;;;;;;;6.07;5.47;;;6.90;99.90;;;;;;5047605;28;20527;-75
2020/12/15 07:17:45;;;;;;;5.43;4.70;;;6.90;99.90;;;;;;5049791;28;20483;-75
2020/12/15 07:20:11;;;;;;;5.37;4.83;;;6.90;99.90;;;;;;5045567;28;20531;-75
2020/12/15 07:22:37;;;;;;;5.87;5.30;;;6.90;99.90;;;;;;5042437;28;20438;-76
2020/12/15 07:25:04;;;;;;;5.23;4.73;;;6.90;99.90;;;;;;5051152;28;20477;-75
2020/12/15 07:27:32;;;;;;;6.70;5.77;;;6.90;99.90;;;;;;5046395;28;20497;-75
2020/12/15 07:29:58;;;;;;;5.67;5.27;;;6.90;99.90;;;;;;5043267;28;20814;-75
2020/12/15 07:32:27;;;;;;;5.40;4.87;;;7.00;99.90;;;;;;5048158;28;20440;-75
2020/12/15 07:35:07;;;;;;;5.90;5.33;;;7.00;99.90;;;;;;5042966;28;20766;-76
2020/12/15 07:37:39;;;;;;;4.93;4.37;;;7.00;99.90;;;;;;5042162;28;20450;-75
2020/12/15 07:40:13;;;;;;;6.10;5.30;;;7.00;99.90;;;;;;5041725;28;20499;-75
2020/12/15 07:42:40;;;;;;;6.27;5.67;;;7.00;99.90;;;;;;5044293;28;20447;-75
2020/12/15 07:45:10;;;;;;;5.23;4.77;;;7.00;99.90;;;;;;5048771;28;20459;-75
2020/12/15 07:47:41;;;;;;;6.17;5.57;;;7.10;99.90;;;;;;5040718;28;20423;-75
2020/12/15 07:50:09;;;;;;;5.20;4.70;;;7.10;99.90;;;;;;5041083;28;20427;-75
2020/12/15 07:52:37;;;;;;;5.70;5.17;;;7.10;99.90;;;;;;5043995;28;20438;-75
2020/12/15 07:55:07;;;;;;;6.07;5.47;;;7.10;99.90;;;;;;5044303;28;20440;-75
2020/12/15 07:57:34;;;;;;;5.33;4.77;;;7.10;99.90;;;;;;5039209;28;20442;-75
2020/12/15 08:00:07;;;;;;;5.80;5.27;;;7.10;99.90;;;;;;5042430;28;20439;-75
2020/12/15 08:02:34;;;;;;;6.07;5.47;;;7.10;99.90;;;;;;5045196;28;20435;-75
2020/12/15 08:05:08;;;;;;;5.50;5.00;;;7.10;99.90;;;;;;5043424;28;20495;-75
2020/12/15 08:07:54;;;;;;;6.47;5.30;;;7.10;99.90;;;;;;5038802;28;21351;-75
2020/12/15 08:10:32;;;;;;;5.30;4.80;;;7.20;99.90;;;;;;5039881;28;20544;-75
2020/12/15 08:13:00;;;;;;;5.60;5.10;;;7.20;99.90;;;;;;5041032;28;20423;-74
2020/12/15 08:15:27;;;;;;;5.40;4.90;;;7.20;99.90;;;;;;5039946;28;20439;-75
2020/12/15 08:17:55;;;;;;;4.57;4.17;;;7.20;99.90;;;;;;5039989;28;20454;-75
2020/12/15 08:20:27;;;;;;;5.77;4.97;;;7.20;99.90;;;;;;5044365;28;20427;-75
2020/12/15 08:23:11;;;;;;;5.50;4.97;;;7.20;99.90;;;;;;5043593;28;20516;-75
2020/12/15 08:25:43;;;;;;;9.70;5.73;;;7.30;99.90;;;;;;5042412;28;20429;-75
2020/12/15 08:28:12;;;;;;;6.20;5.40;;;7.30;99.90;;;;;;5035479;28;20932;-75
2020/12/15 08:30:42;;;;;;;5.80;5.30;;;7.30;99.90;;;;;;5037969;28;20469;-75
2020/12/15 08:33:07;;;;;;;5.90;5.40;;;7.30;99.90;;;;;;5039803;28;20974;-75
2020/12/15 08:35:33;;;;;;;5.50;5.00;;;7.30;99.90;;;;;;5040711;28;20439;-75
2020/12/15 08:38:03;;;;;;;6.13;5.53;;;7.30;99.90;;;;;;5042491;28;20184;-75
2020/12/15 08:40:29;;;;;;;6.30;5.70;;;7.40;99.90;;;;;;5047224;28;20505;-75
2020/12/15 08:43:03;;;;;;;5.13;4.63;;;7.40;99.90;;;;;;5045477;28;20440;-76
2020/12/15 08:45:30;;;;;;;5.73;5.23;;;7.40;99.90;;;;;;5033465;28;20434;-76
2020/12/15 08:47:58;;;;;;;5.23;4.83;;;7.40;99.90;;;;;;5043171;28;20871;-76
2020/12/15 08:50:29;;;;;;;5.63;4.97;;;7.40;99.90;;;;;;5056296;28;20475;-75
2020/12/15 08:53:09;;;;;;;6.53;5.80;;;7.40;99.90;;;;;;5034713;28;20436;-75
2020/12/15 08:55:36;;;;;;;4.70;4.30;;;7.40;99.90;;;;;;5043448;28;20428;-75
2020/12/15 08:58:03;;;;;;;5.50;5.00;;;7.40;99.90;;;;;;5037138;28;20434;-75
2020/12/15 09:00:33;;;;;;;5.80;5.30;;;7.50;99.90;;;;;;5041415;28;20481;-75
2020/12/15 09:03:06;;;;;;;5.97;5.23;;;7.50;99.90;;;;;;5048667;28;20746;-76
2020/12/15 09:05:32;;;;;;;5.23;4.60;;;7.50;99.90;;;;;;5044790;28;20427;-75
2020/12/15 09:08:05;;;;;;;6.50;5.90;;;7.50;99.90;;;;;;5038285;28;20819;-75
2020/12/15 09:10:31;;;;;;;5.93;5.20;;;7.50;99.90;;;;;;5043154;28;20432;-75
2020/12/15 09:12:57;;;;;;;5.73;5.20;;;7.50;99.90;;;;;;5039525;28;20439;-75
2020/12/15 09:15:23;;;;;;;5.40;4.90;;;7.50;99.90;;;;;;5040505;28;20189;-75
2020/12/15 09:17:49;;;;;;;6.63;5.97;;;7.50;99.90;;;;;;5039689;28;22243;-76
2020/12/15 09:20:25;;;;;;;6.50;5.80;;;7.60;99.90;;;;;;5041535;28;20438;-75
2020/12/15 09:22:51;;;;;;;6.10;5.50;;;7.60;99.90;;;;;;5037662;28;21115;-76
2020/12/15 09:25:16;;;;;;;6.00;5.50;;;7.60;99.90;;;;;;5033559;28;20539;-74
2020/12/15 09:27:46;;;;;;;5.90;5.37;;;7.60;99.90;;;;;;5037699;28;21417;-73
2020/12/15 09:30:14;;;;;;;7.23;6.23;;;7.60;99.90;;;;;;5036291;28;20165;-73
2020/12/15 09:32:41;;;;;;;6.67;6.07;;;7.70;99.90;;;;;;5041174;28;20424;-74
2020/12/15 09:35:11;;;;;;;5.93;5.40;;;7.70;99.90;;;;;;5044058;28;20777;-73
2020/12/15 09:37:39;;;;;;;6.13;5.57;;;7.80;99.90;;;;;;5041072;28;20432;-74
2020/12/15 09:40:08;;;;;;;6.23;5.27;;;7.90;99.90;;;;;;5032410;28;20497;-73
2020/12/15 09:42:38;;;;;;;7.20;5.30;;;8.00;99.90;;;;;;5039895;28;20485;-76
2020/12/15 09:45:07;;;;;;;8.50;6.30;;;8.10;99.90;;;;;;5039025;28;20452;-76
2020/12/15 09:47:33;;;;;;;5.47;4.97;;;8.20;99.90;;;;;;5043874;28;20440;-76
2020/12/15 09:50:01;;;;;;;8.07;5.87;;;8.20;99.90;;;;;;5044696;28;20803;-76
2020/12/15 09:52:27;;;;;;;7.00;6.30;;;8.30;99.90;;;;;;5060131;28;20558;-76
2020/12/15 09:54:53;;;;;;;5.83;5.33;;;8.30;99.90;;;;;;5042934;28;20439;-76
2020/12/15 09:57:18;;;;;;;8.90;5.97;;;8.30;99.90;;;;;;5041625;28;21776;-76
2020/12/15 09:59:44;;;;;;;6.30;5.70;;;8.40;99.90;;;;;;5045379;28;20518;-76
2020/12/15 10:02:10;;;;;;;6.00;5.40;;;8.40;99.90;;;;;;5046490;28;20516;-76
2020/12/15 10:04:36;;;;;;;6.70;5.20;;;8.40;99.90;;;;;;5045218;28;20208;-76
2020/12/15 10:07:02;;;;;;;6.27;5.60;;;8.40;99.90;;;;;;5043558;28;20264;-76
2020/12/15 10:09:28;;;;;;;6.23;5.50;;;8.50;99.90;;;;;;5045362;28;20188;-76
2020/12/15 10:11:53;;;;;;;5.70;5.17;;;8.50;99.90;;;;;;5049986;28;20427;-76
2020/12/15 10:14:19;;;;;;;6.20;5.60;;;8.50;99.90;;;;;;5044465;28;20447;-75
2020/12/15 10:16:45;;;;;;;5.73;5.13;;;8.50;99.90;;;;;;5045968;28;20192;-75
2020/12/15 10:19:11;;;;;;;6.03;5.43;;;8.50;99.90;;;;;;5041812;28;20185;-76
2020/12/15 10:21:37;;;;;;;8.43;5.70;;;8.50;99.90;;;;;;5046149;28;20193;-76
2020/12/15 10:24:03;;;;;;;5.33;4.83;;;8.50;99.90;;;;;;5043765;28;20590;-75
2020/12/15 10:26:29;;;;;;;6.30;5.43;;;8.50;99.90;;;;;;5047835;28;20427;-75
2020/12/15 10:28:56;;;;;;;6.67;6.00;;;8.50;99.90;;;;;;5046468;28;20443;-76
2020/12/15 10:31:22;;;;;;;6.87;5.33;;;8.50;99.90;;;;;;5045066;28;20447;-76
2020/12/15 10:33:48;;;;;;;5.67;5.23;;;8.60;99.90;;;;;;5046649;28;20889;-76
2020/12/15 10:36:15;;;;;;;5.70;5.10;;;8.60;99.90;;;;;;5046604;28;20440;-76
2020/12/15 10:38:42;;;;;;;5.43;4.87;;;8.60;99.90;;;;;;5044267;28;20448;-76
2020/12/15 10:41:07;;;;;;;6.73;5.40;;;8.60;99.90;;;;;;5046760;28;20936;-75
2020/12/15 10:43:34;;;;;;;5.67;5.00;;;8.70;99.90;;;;;;5050155;28;20467;-75
2020/12/15 10:45:59;;;;;;;6.10;5.50;;;8.70;99.90;;;;;;5049540;28;20216;-75
2020/12/15 10:48:25;;;;;;;7.93;6.07;;;8.70;99.90;;;;;;5039037;28;20463;-75
2020/12/15 10:50:51;;;;;;;6.73;6.03;;;8.70;99.90;;;;;;5048460;28;20178;-75
2020/12/15 10:53:18;;;;;;;5.67;5.07;;;8.70;99.90;;;;;;5048030;28;20439;-75
2020/12/15 10:55:48;;;;;;;6.10;5.50;;;8.70;99.90;;;;;;5048793;28;20532;-74
2020/12/15 10:58:14;;;;;;;6.40;5.53;;;8.70;99.90;;;;;;5048150;28;20463;-73
2020/12/15 11:00:40;;;;;;;6.50;5.57;;;8.70;99.90;;;;;;5048886;28;20428;-75
2020/12/15 11:03:06;;;;;;;5.43;5.03;;;8.70;99.90;;;;;;5049837;28;20461;-73
2020/12/15 11:05:31;;;;;;;6.40;5.80;;;8.70;99.90;;;;;;5044771;28;20619;-74
2020/12/15 11:07:57;;;;;;;6.50;5.90;;;8.80;99.90;;;;;;5047678;28;20626;-75
2020/12/15 11:10:23;;;;;;;7.13;5.50;;;8.80;99.90;;;;;;5044628;28;20178;-75
2020/12/15 11:12:48;;;;;;;6.10;5.60;;;8.80;99.90;;;;;;5047021;28;20667;-76
2020/12/15 11:15:14;;;;;;;6.17;5.57;;;8.80;99.90;;;;;;5061569;28;20228;-77
2020/12/15 11:17:40;;;;;;;5.67;5.07;;;8.80;99.90;;;;;;5049661;28;20185;-77
2020/12/15 11:20:06;;;;;;;6.50;5.87;;;8.80;99.90;;;;;;5069126;28;20195;-76
2020/12/15 11:22:32;;;;;;;5.73;5.20;;;8.90;99.90;;;;;;5069925;28;20173;-75
2020/12/15 11:24:58;;;;;;;5.40;4.90;;;8.90;99.90;;;;;;5064596;28;20530;-76
2020/12/15 11:27:24;;;;;;;4.87;4.47;;;8.90;99.90;;;;;;5069344;28;20443;-76
2020/12/15 11:29:49;;;;;;;7.37;5.87;;;9.00;99.90;;;;;;5066859;28;20427;-76
2020/12/15 11:32:16;;;;;;;6.93;6.00;;;9.00;99.90;;;;;;5060351;28;20166;-77
2020/12/15 11:34:41;;;;;;;6.30;4.90;;;9.00;99.90;;;;;;5060758;28;20498;-77
2020/12/15 11:37:10;;;;;;;5.97;5.47;;;9.00;99.90;;;;;;5055954;28;20196;-76
2020/12/15 11:39:36;;;;;;;6.70;5.63;;;9.00;99.90;;;;;;5056738;28;20195;-76
2020/12/15 11:42:08;;;;;;;7.50;5.30;;;9.10;99.90;;;;;;5058223;28;20428;-76
2020/12/15 11:44:37;;;;;;;8.80;6.60;;;9.10;99.90;;;;;;5057285;28;20443;-76
2020/12/15 11:47:03;;;;;;;5.40;5.00;;;9.10;99.90;;;;;;5047675;28;20437;-77
2020/12/15 11:49:29;;;;;;;6.77;6.07;;;9.10;99.90;;;;;;5046910;28;20496;-77
2020/12/15 11:51:55;;;;;;;7.03;6.13;;;9.10;99.90;;;;;;5048278;28;20432;-76
2020/12/15 11:54:22;;;;;;;7.77;6.97;;;9.20;99.90;;;;;;5050261;28;20849;-76
2020/12/15 11:56:51;;;;;;;7.30;5.83;;;9.20;99.90;;;;;;5050033;28;20530;-76
2020/12/15 11:59:18;;;;;;;6.47;5.83;;;9.20;99.90;;;;;;5046427;28;20514;-73
2020/12/15 12:01:43;;;;;;;6.00;5.13;;;9.20;99.90;;;;;;5046817;28;20439;-74
2020/12/15 12:04:09;;;;;;;7.00;6.23;;;9.20;99.90;;;;;;5043445;28;20744;-75
2020/12/15 12:06:35;;;;;;;6.17;5.57;;;9.20;99.90;;;;;;5047195;28;20177;-75
2020/12/15 12:09:02;;;;;;;7.60;6.90;;;9.20;99.90;;;;;;5046435;28;20189;-73
2020/12/15 12:11:29;;;;;;;5.80;5.20;;;9.20;99.90;;;;;;5044681;28;20506;-74
2020/12/15 12:13:55;;;;;;;5.80;5.23;;;9.10;99.90;;;;;;5049229;28;20523;-74
2020/12/15 12:16:21;;;;;;;5.10;4.70;;;9.10;99.90;;;;;;5043575;28;20507;-73
2020/12/15 12:18:47;;;;;;;6.33;5.73;;;9.10;99.90;;;;;;5043931;28;20786;-73
2020/12/15 12:21:12;;;;;;;7.33;5.40;;;9.10;99.90;;;;;;5044582;28;20729;-74
2020/12/15 12:23:39;;;;;;;6.77;6.10;;;9.10;99.90;;;;;;5045714;28;20295;-74
2020/12/15 12:26:05;;;;;;;7.90;6.57;;;9.10;99.90;;;;;;5045071;28;20505;-73
2020/12/15 12:28:32;;;;;;;6.73;5.93;;;9.10;99.90;;;;;;5045480;28;20436;-73
2020/12/15 12:30:58;;;;;;;6.57;5.90;;;9.00;99.90;;;;;;5041697;28;20422;-74
2020/12/15 12:33:24;;;;;;;6.73;6.10;;;9.00;99.90;;;;;;5041356;28;21028;-71
2020/12/15 12:35:52;;;;;;;7.13;5.80;;;9.00;99.90;;;;;;5044755;28;20446;-72
2020/12/15 12:38:19;;;;;;;6.23;5.27;;;9.00;99.90;;;;;;5044899;28;20264;-72
2020/12/15 12:40:46;;;;;;;6.47;5.87;;;9.00;99.90;;;;;;5042685;28;20436;-72
2020/12/15 12:43:12;;;;;;;6.57;5.43;;;9.00;99.90;;;;;;5042267;28;20852;-72
2020/12/15 12:45:40;;;;;;;8.40;6.97;;;9.00;99.90;;;;;;5047464;28;20442;-72
2020/12/15 12:48:07;;;;;;;7.33;6.47;;;9.10;99.90;;;;;;5048157;28;20419;-72
2020/12/15 12:50:33;;;;;;;5.73;5.13;;;9.10;99.90;;;;;;5044519;28;20446;-72
2020/12/15 12:52:59;;;;;;;5.33;4.83;;;9.00;99.90;;;;;;5046203;28;20518;-71
2020/12/15 12:55:25;;;;;;;6.33;5.60;;;9.00;99.90;;;;;;5041237;28;23276;-71
2020/12/15 12:57:50;;;;;;;5.83;4.80;;;9.00;99.90;;;;;;5039993;28;20186;-72